Terminal Aerodrome Forecast
Issued by NWS

Home | Current Version | Previous Version | Text Only | Print | Product List | Glossary On
Versions: 1 2 3 4 5 6 7 8 9 10 11 12 13 14 15 16 17 18 19 20
000
FTUS45 KBOU 261728
TAFBJC
TAF
KBJC 261728Z 2618/2718 VRB06KT P6SM SCT090 SCT150 BKN200
     FM262200 27012KT P6SM SCT080 BKN140
     FM270200 25009KT P6SM FEW100 SCT150
     FM271500 03011KT P6SM FEW200=

USA.gov is the U.S. government's official web portal to all federal, state and local government web resources and services.